createdAt,value
2019-01-15T00:00:03.914Z,0.94
2019-01-15T00:05:03.917Z,0.88
2019-01-15T00:10:03.901Z,0.94
2019-01-15T00:15:03.903Z,1
2019-01-15T00:20:03.905Z,1
2019-01-15T00:25:04.076Z,1
2019-01-15T00:30:03.908Z,1.06
2019-01-15T00:35:03.962Z,1.06
2019-01-15T00:40:03.927Z,1.06
2019-01-15T00:45:03.915Z,1.13
2019-01-15T00:50:03.964Z,1.13
2019-01-15T00:55:03.914Z,1.13
2019-01-15T01:00:03.954Z,1.13
2019-01-15T01:05:03.892Z,1.19
2019-01-15T01:10:03.911Z,1.19
2019-01-15T01:15:03.928Z,1.19
2019-01-15T01:20:03.912Z,1.19
2019-01-15T01:25:03.917Z,1.25
2019-01-15T01:30:03.933Z,1.25
2019-01-15T01:35:03.920Z,1.31
2019-01-15T01:40:03.952Z,1.31
2019-01-15T01:45:03.993Z,1.31
2019-01-15T01:50:03.937Z,1.31
2019-01-15T01:55:03.925Z,1.25
2019-01-15T02:00:03.934Z,1.19
2019-01-15T02:05:03.944Z,1.19
2019-01-15T02:10:03.930Z,1.19
2019-01-15T02:15:03.951Z,1.19
2019-01-15T02:20:03.944Z,1.13
2019-01-15T02:25:03.936Z,1.13
2019-01-15T02:30:03.969Z,1.13
2019-01-15T02:35:03.924Z,1.13
2019-01-15T02:40:03.935Z,1.13
2019-01-15T02:45:03.953Z,1.13
2019-01-15T02:50:03.981Z,1.19
2019-01-15T02:55:03.945Z,1.13
2019-01-15T03:00:03.959Z,1.19
2019-01-15T03:05:03.959Z,1.25
2019-01-15T03:10:03.963Z,1.25
2019-01-15T03:15:04.015Z,1.25
2019-01-15T03:20:03.973Z,1.31
2019-01-15T03:25:03.958Z,1.31
2019-01-15T03:30:03.991Z,1.38
2019-01-15T03:35:03.985Z,1.44
2019-01-15T03:40:03.952Z,1.44
2019-01-15T03:45:05.032Z,1.5
2019-01-15T03:50:03.983Z,1.56
2019-01-15T03:55:03.964Z,1.56
2019-01-15T04:00:03.979Z,1.63
2019-01-15T04:05:03.954Z,1.63
2019-01-15T04:10:03.993Z,1.69
2019-01-15T04:15:03.996Z,1.75
2019-01-15T04:20:03.990Z,1.75
2019-01-15T04:25:03.977Z,1.75
2019-01-15T04:30:03.994Z,1.75
2019-01-15T04:35:03.981Z,1.75
2019-01-15T04:40:03.998Z,1.81
2019-01-15T04:45:04.001Z,1.81
2019-01-15T04:50:03.982Z,1.81
2019-01-15T04:55:04.009Z,1.81
2019-01-15T05:00:04.031Z,1.81
2019-01-15T05:05:03.994Z,1.81
2019-01-15T05:10:04.021Z,1.81
2019-01-15T05:15:04.010Z,1.81
2019-01-15T05:20:03.995Z,1.81
2019-01-15T05:25:03.996Z,1.81
2019-01-15T05:30:04.026Z,1.81
2019-01-15T05:35:04.016Z,1.81
2019-01-15T05:40:03.992Z,1.81
2019-01-15T05:45:04.015Z,1.88
2019-01-15T05:50:03.988Z,1.88
2019-01-15T05:55:04.023Z,1.81
2019-01-15T06:00:04.021Z,1.88
2019-01-15T06:05:04.066Z,1.88
2019-01-15T06:10:04.030Z,1.88
2019-01-15T06:15:04.032Z,1.88
2019-01-15T06:20:04.021Z,1.88
2019-01-15T06:25:04.018Z,1.81
2019-01-15T06:30:04.002Z,1.81
2019-01-15T06:35:04.023Z,1.81
2019-01-15T06:40:04.024Z,1.81
2019-01-15T06:45:04.027Z,1.81
2019-01-15T06:50:04.032Z,1.88
2019-01-15T06:55:04.035Z,1.88
2019-01-15T07:00:04.050Z,1.88
2019-01-15T07:05:04.063Z,1.94
2019-01-15T07:10:04.055Z,1.94
2019-01-15T07:15:04.036Z,2.06
2019-01-15T07:20:04.052Z,2.06
2019-01-15T07:25:04.037Z,2.13
2019-01-15T07:30:04.053Z,2.13
2019-01-15T07:35:04.043Z,2.19
2019-01-15T07:40:04.050Z,2.25
2019-01-15T07:45:04.024Z,2.31
2019-01-15T07:50:04.046Z,2.31
2019-01-15T07:55:04.061Z,2.44
2019-01-15T08:00:04.029Z,2.44
2019-01-15T08:05:04.063Z,2.44
2019-01-15T08:10:04.078Z,2.5
2019-01-15T08:15:04.055Z,2.5
2019-01-15T08:20:04.065Z,2.5
2019-01-15T08:25:04.066Z,2.5
2019-01-15T08:30:04.113Z,2.5
2019-01-15T08:35:04.071Z,2.56
2019-01-15T08:40:04.074Z,2.63
2019-01-15T08:45:04.055Z,2.69
2019-01-15T08:50:04.082Z,2.75
2019-01-15T08:55:04.053Z,2.75
2019-01-15T09:00:04.051Z,2.75
2019-01-15T09:05:04.089Z,2.75
2019-01-15T09:10:04.076Z,2.75
2019-01-15T09:15:04.078Z,2.75
2019-01-15T09:20:04.894Z,2.75
2019-01-15T09:25:04.094Z,2.69
2019-01-15T09:30:04.090Z,2.69
2019-01-15T09:35:04.093Z,2.63
2019-01-15T09:40:04.097Z,2.44
2019-01-15T09:45:04.102Z,2.13
2019-01-15T09:50:04.092Z,2.13
2019-01-15T09:55:04.100Z,2.25
2019-01-15T10:00:04.101Z,2.38
2019-01-15T10:05:04.110Z,2.5
2019-01-15T10:10:04.090Z,2.56
2019-01-15T10:15:04.121Z,2.69
2019-01-15T10:20:04.110Z,2.75
2019-01-15T10:25:04.113Z,2.88
2019-01-15T10:30:04.114Z,2.94
2019-01-15T10:35:04.116Z,3
2019-01-15T10:40:04.113Z,3.06
2019-01-15T10:45:04.101Z,3.13
2019-01-15T10:50:04.385Z,3.19
2019-01-15T10:55:04.173Z,3.31
2019-01-15T11:00:04.180Z,3.38
2019-01-15T11:05:04.164Z,3.44
2019-01-15T11:10:04.125Z,3.5
2019-01-15T11:15:04.109Z,3.56
2019-01-15T11:20:04.188Z,3.63
2019-01-15T11:25:04.124Z,3.69
2019-01-15T11:40:03.992Z,3.75
2019-01-15T11:55:03.914Z,3.75
2019-01-15T12:00:03.880Z,3.75
2019-01-15T12:05:03.863Z,3.81
2019-01-15T12:10:03.881Z,3.81
2019-01-15T12:15:10.580Z,3.88
2019-01-15T12:20:03.883Z,3.88
2019-01-15T12:25:03.891Z,3.88
2019-01-15T12:30:03.880Z,3.94
2019-01-15T12:35:03.872Z,3.94
2019-01-15T12:40:03.893Z,4
2019-01-15T12:45:03.873Z,4
2019-01-15T12:50:03.881Z,4
2019-01-15T12:55:03.915Z,4.06
2019-01-15T13:00:03.881Z,4.13
2019-01-15T13:05:03.871Z,4.13
2019-01-15T13:10:03.903Z,4.13
2019-01-15T13:15:03.879Z,4.13
2019-01-15T13:20:03.882Z,4.25
2019-01-15T13:25:03.908Z,4.25
2019-01-15T13:30:03.901Z,4.25
2019-01-15T13:35:03.902Z,4.25
2019-01-15T13:40:03.910Z,4.38
2019-01-15T13:45:03.916Z,4.44
2019-01-15T13:50:03.923Z,4.5
2019-01-15T13:55:03.982Z,4.5
2019-01-15T14:00:03.919Z,4.56
2019-01-15T14:05:03.916Z,4.63
2019-01-15T14:10:03.935Z,4.63
2019-01-15T14:15:03.932Z,4.69
2019-01-15T14:20:03.914Z,4.69
2019-01-15T14:25:03.921Z,4.69
2019-01-15T14:30:03.926Z,4.69
2019-01-15T14:35:03.902Z,4.69
2019-01-15T14:40:03.911Z,4.75
2019-01-15T14:45:03.925Z,4.75
2019-01-15T14:50:03.911Z,4.81
2019-01-15T14:55:03.925Z,4.75
2019-01-15T15:00:03.917Z,4.81
2019-01-15T15:05:03.911Z,4.88
2019-01-15T15:10:03.927Z,4.81
2019-01-15T15:15:03.960Z,4.81
2019-01-15T15:20:03.935Z,4.81
2019-01-15T15:25:03.931Z,4.81
2019-01-15T15:30:03.939Z,4.81
2019-01-15T15:35:03.904Z,4.88
2019-01-15T15:40:03.947Z,4.88
2019-01-15T15:45:03.923Z,5
2019-01-15T15:50:03.925Z,5
2019-01-15T15:55:03.935Z,5
2019-01-15T16:00:03.947Z,5
2019-01-15T16:05:03.940Z,5.06
2019-01-15T16:10:03.944Z,5
2019-01-15T16:15:03.915Z,5.06
2019-01-15T16:20:03.911Z,5.06
2019-01-15T16:25:33.962Z,5.06
2019-01-15T16:30:03.940Z,5.06
2019-01-15T16:35:03.952Z,5.06
2019-01-15T16:40:03.945Z,5.06
2019-01-15T16:45:03.941Z,5.06
2019-01-15T16:50:11.101Z,5.25
2019-01-15T16:55:03.927Z,5.25
2019-01-15T17:00:03.957Z,5.31
2019-01-15T17:05:03.928Z,5.31
2019-01-15T17:10:03.949Z,5.31
2019-01-15T17:15:03.972Z,5.31
2019-01-15T17:20:03.936Z,5.31
2019-01-15T17:25:03.932Z,5.31
2019-01-15T17:30:03.963Z,5.38
2019-01-15T17:35:03.971Z,5.38
2019-01-15T17:40:03.969Z,5.38
2019-01-15T17:45:03.994Z,5.44
2019-01-15T17:50:03.955Z,5.44
2019-01-15T17:55:03.966Z,5.5
2019-01-15T18:00:03.971Z,5.5
2019-01-15T18:05:03.949Z,5.5
2019-01-15T18:10:03.986Z,5.56
2019-01-15T18:15:03.974Z,5.56
2019-01-15T18:20:03.953Z,5.56
2019-01-15T18:25:03.949Z,5.63
2019-01-15T18:30:03.992Z,5.63
2019-01-15T18:35:03.950Z,5.63
2019-01-15T18:40:03.952Z,5.63
2019-01-15T18:45:03.982Z,5.69
2019-01-15T18:50:03.998Z,5.69
2019-01-15T18:55:03.993Z,5.75
2019-01-15T19:00:04.113Z,5.75
2019-01-15T19:05:03.993Z,5.75
2019-01-15T19:10:03.990Z,5.75
2019-01-15T19:15:04.007Z,5.81
2019-01-15T19:20:03.990Z,5.81
2019-01-15T19:25:04.002Z,5.81
2019-01-15T19:30:03.999Z,5.81
2019-01-15T19:35:03.996Z,5.75
2019-01-15T19:40:04.002Z,5.81
2019-01-15T19:45:04.006Z,5.81
2019-01-15T19:50:03.988Z,5.81
2019-01-15T19:55:04.000Z,5.88
2019-01-15T20:00:04.070Z,5.88
2019-01-15T20:10:04.010Z,5.94
2019-01-15T20:15:04.056Z,5.94
2019-01-15T20:20:04.002Z,5.94
2019-01-15T20:25:04.004Z,5.88
2019-01-15T20:30:04.058Z,5.88
2019-01-15T20:35:04.015Z,5.88
2019-01-15T20:40:04.017Z,5.88
2019-01-15T20:45:04.035Z,5.88
2019-01-15T20:50:04.015Z,5.81
2019-01-15T20:55:04.022Z,5.81
2019-01-15T21:00:04.035Z,5.81
2019-01-15T21:05:04.014Z,5.88
2019-01-15T21:10:04.038Z,5.88
2019-01-15T21:15:04.029Z,5.88
2019-01-15T21:20:04.034Z,5.88
2019-01-15T21:25:04.053Z,5.81
2019-01-15T21:30:04.065Z,5.81
2019-01-15T21:35:04.048Z,5.81
2019-01-15T21:40:04.035Z,5.75
2019-01-15T21:45:04.186Z,5.63
2019-01-15T21:50:04.028Z,5.63
2019-01-15T21:55:04.046Z,5.56
2019-01-15T22:00:04.087Z,5.5
2019-01-15T22:05:04.058Z,5.5
2019-01-15T22:10:04.056Z,5.5
2019-01-15T22:15:04.045Z,5.5
2019-01-15T22:20:04.053Z,5.56
2019-01-15T22:25:04.239Z,5.5
2019-01-15T22:30:04.042Z,5.5
2019-01-15T22:35:04.064Z,5.44
2019-01-15T22:40:04.044Z,5.5
2019-01-15T22:45:04.048Z,5.56
2019-01-15T22:50:04.069Z,5.56
2019-01-15T22:55:04.050Z,5.56
2019-01-15T23:00:04.048Z,5.63
2019-01-15T23:05:04.091Z,5.69
2019-01-15T23:10:04.027Z,5.69
2019-01-15T23:15:09.059Z,5.69
2019-01-15T23:20:04.054Z,5.75
2019-01-15T23:25:04.062Z,5.75
2019-01-15T23:30:04.053Z,5.75
2019-01-15T23:35:04.093Z,5.75
2019-01-15T23:40:04.071Z,5.75
2019-01-15T23:45:04.050Z,5.75
2019-01-15T23:50:04.110Z,5.75
2019-01-15T23:55:04.085Z,5.81
